createdAt,value
2023-04-10T00:00:21.766Z,1019.20
2023-04-10T00:01:21.746Z,1019.24
2023-04-10T00:02:21.846Z,1019.25
2023-04-10T00:03:21.919Z,1019.25
2023-04-10T00:04:21.812Z,1019.29
2023-04-10T00:05:21.705Z,1019.26
2023-04-10T00:06:21.686Z,1019.28
2023-04-10T00:07:21.695Z,1019.21
2023-04-10T00:08:21.727Z,1019.23
2023-04-10T00:09:21.645Z,1019.22
2023-04-10T00:10:21.623Z,1019.17
2023-04-10T00:11:21.641Z,1019.18
2023-04-10T00:12:21.628Z,1019.14
2023-04-10T00:13:21.679Z,1019.14
2023-04-10T00:14:21.616Z,1019.15
2023-04-10T00:15:21.599Z,1019.17
2023-04-10T00:16:21.591Z,1019.20
2023-04-10T00:17:21.586Z,1019.25
2023-04-10T00:18:21.596Z,1019.19
2023-04-10T00:19:21.547Z,1019.22
2023-04-10T00:20:21.522Z,1019.22
2023-04-10T00:21:21.561Z,1019.23
2023-04-10T00:22:21.500Z,1019.21
2023-04-10T00:23:21.537Z,1019.19
2023-04-10T00:24:21.486Z,1019.16
2023-04-10T00:25:21.471Z,1019.19
2023-04-10T00:26:21.469Z,1019.14
2023-04-10T00:27:21.447Z,1019.16
2023-04-10T00:28:21.479Z,1019.11
2023-04-10T00:29:21.420Z,1019.12
2023-04-10T00:30:21.429Z,1019.15
2023-04-10T00:31:21.440Z,1019.14
2023-04-10T00:32:21.435Z,1019.10
2023-04-10T00:33:21.422Z,1019.12
2023-04-10T00:34:21.372Z,1019.14
2023-04-10T00:35:21.349Z,1019.15
2023-04-10T00:36:21.363Z,1019.12
2023-04-10T00:37:21.314Z,1019.05
2023-04-10T00:38:21.339Z,1019.06
2023-04-10T00:39:21.286Z,1019.05
2023-04-10T00:40:21.294Z,1019.10
2023-04-10T00:41:21.280Z,1019.04
2023-04-10T00:42:21.281Z,1019.08
2023-04-10T00:43:21.300Z,1019.04
2023-04-10T00:44:21.232Z,1019.06
2023-04-10T00:45:21.247Z,1019.06
2023-04-10T00:46:21.241Z,1019.06
2023-04-10T00:47:21.226Z,1019.08
2023-04-10T00:48:21.255Z,1019.07
2023-04-10T00:49:21.207Z,1019.06
2023-04-10T00:50:21.201Z,1019.07
2023-04-10T00:51:21.167Z,1019.09
2023-04-10T00:52:21.156Z,1019.05
2023-04-10T00:53:21.196Z,1019.02
2023-04-10T00:54:21.135Z,1019.03
2023-04-10T00:55:21.126Z,1019.03
2023-04-10T00:56:21.107Z,1019.01
2023-04-10T00:57:21.097Z,1019.02
2023-04-10T00:58:21.126Z,1019.00
2023-04-10T00:59:21.080Z,1019.01
2023-04-10T01:00:21.097Z,1018.97
2023-04-10T01:01:21.086Z,1019.01
2023-04-10T01:02:21.246Z,1018.98
2023-04-10T01:03:21.217Z,1019.01
2023-04-10T01:04:21.077Z,1019.02
2023-04-10T01:05:21.007Z,1019.07
2023-04-10T01:06:20.974Z,1019.03
2023-04-10T01:07:20.957Z,1019.02
2023-04-10T01:08:21.083Z,1019.02
2023-04-10T01:09:20.952Z,1019.03
2023-04-10T01:10:20.964Z,1018.99
2023-04-10T01:11:20.929Z,1019.03
2023-04-10T01:12:20.920Z,1019.05
2023-04-10T01:13:20.949Z,1019.04
2023-04-10T01:14:20.899Z,1019.04
2023-04-10T01:15:20.883Z,1019.04
2023-04-10T01:16:20.919Z,1019.01
2023-04-10T01:17:20.863Z,1019.05
2023-04-10T01:18:20.879Z,1019.02
2023-04-10T01:19:20.839Z,1019.08
2023-04-10T01:20:20.812Z,1019.05
2023-04-10T01:21:20.808Z,1019.06
2023-04-10T01:22:20.793Z,1019.08
2023-04-10T01:23:20.828Z,1019.08
2023-04-10T01:24:20.773Z,1019.08
2023-04-10T01:25:20.765Z,1019.09
2023-04-10T01:26:20.749Z,1019.10
2023-04-10T01:27:20.751Z,1019.11
2023-04-10T01:28:20.802Z,1019.09
2023-04-10T01:29:20.727Z,1019.09
2023-04-10T01:30:20.708Z,1019.13
2023-04-10T01:31:20.832Z,1019.07
2023-04-10T01:32:20.736Z,1019.09
2023-04-10T01:33:20.719Z,1019.12
2023-04-10T01:34:20.687Z,1019.10
2023-04-10T01:35:20.655Z,1019.12
2023-04-10T01:36:20.623Z,1019.14
2023-04-10T01:37:20.606Z,1019.13
2023-04-10T01:38:20.651Z,1019.11
2023-04-10T01:39:20.594Z,1019.11
2023-04-10T01:40:20.594Z,1019.11
2023-04-10T01:41:20.577Z,1019.13
2023-04-10T01:42:20.565Z,1019.10
2023-04-10T01:43:20.615Z,1019.08
2023-04-10T01:44:20.549Z,1019.07
2023-04-10T01:45:20.563Z,1019.06
2023-04-10T01:46:20.539Z,1019.01
2023-04-10T01:47:20.511Z,1019.01
2023-04-10T01:48:20.540Z,1018.94
2023-04-10T01:49:20.497Z,1018.99
2023-04-10T01:50:20.491Z,1018.95
2023-04-10T01:51:20.457Z,1018.94
2023-04-10T01:52:20.451Z,1019.00
2023-04-10T01:53:20.481Z,1018.93
2023-04-10T01:54:20.436Z,1018.96
2023-04-10T01:55:20.424Z,1019.00
2023-04-10T01:56:20.402Z,1018.97
2023-04-10T01:57:20.433Z,1018.95
2023-04-10T01:58:20.420Z,1018.94
2023-04-10T01:59:20.363Z,1018.96
2023-04-10T02:00:20.399Z,1018.98
2023-04-10T02:01:29.229Z,1018.96
2023-04-10T02:02:21.434Z,1018.96
2023-04-10T02:03:20.637Z,1019.01
2023-04-10T02:04:20.401Z,1018.98
2023-04-10T02:05:20.299Z,1019.00
2023-04-10T02:06:20.312Z,1018.96
2023-04-10T02:07:20.327Z,1018.97
2023-04-10T02:08:20.352Z,1019.00
2023-04-10T02:09:20.254Z,1018.96
2023-04-10T02:10:20.268Z,1018.99
2023-04-10T02:11:20.296Z,1018.97
2023-04-10T02:12:20.274Z,1018.96
2023-04-10T02:13:20.282Z,1019.01
2023-04-10T02:14:20.206Z,1018.99
2023-04-10T02:15:20.196Z,1018.98
2023-04-10T02:16:20.230Z,1018.94
2023-04-10T02:17:20.198Z,1018.97
2023-04-10T02:18:20.236Z,1018.99
2023-04-10T02:19:20.183Z,1018.96
2023-04-10T02:20:20.156Z,1018.96
2023-04-10T02:21:20.158Z,1018.90
2023-04-10T02:22:20.137Z,1018.89
2023-04-10T02:23:20.132Z,1018.90
2023-04-10T02:24:20.090Z,1018.90
2023-04-10T02:25:20.074Z,1018.87
2023-04-10T02:26:20.115Z,1018.89
2023-04-10T02:27:20.040Z,1018.93
2023-04-10T02:28:20.098Z,1018.95
2023-04-10T02:29:20.046Z,1018.90
2023-04-10T02:30:20.100Z,1018.93
2023-04-10T02:31:20.066Z,1018.91
2023-04-10T02:32:20.115Z,1018.87
2023-04-10T02:33:20.040Z,1018.88
2023-04-10T02:34:19.982Z,1018.86
2023-04-10T02:35:19.965Z,1018.86
2023-04-10T02:36:19.975Z,1018.88
2023-04-10T02:37:19.946Z,1018.84
2023-04-10T02:38:19.984Z,1018.86
2023-04-10T02:39:19.931Z,1018.84
2023-04-10T02:40:19.918Z,1018.85
2023-04-10T02:41:19.900Z,1018.88
2023-04-10T02:42:19.885Z,1018.87
2023-04-10T02:43:19.874Z,1018.85
2023-04-10T02:44:19.907Z,1018.89
2023-04-10T02:45:19.850Z,1018.89
2023-04-10T02:46:19.865Z,1018.87
2023-04-10T02:47:19.871Z,1018.87
2023-04-10T02:48:19.815Z,1018.85
2023-04-10T02:49:19.872Z,1018.89
2023-04-10T02:50:19.785Z,1018.87
2023-04-10T02:51:19.774Z,1018.85
2023-04-10T02:52:19.774Z,1018.84
2023-04-10T02:53:19.758Z,1018.91
2023-04-10T02:54:19.784Z,1018.92
2023-04-10T02:55:19.733Z,1018.88
2023-04-10T02:56:19.736Z,1018.88
2023-04-10T02:57:19.708Z,1018.90
2023-04-10T02:58:19.708Z,1018.87
2023-04-10T02:59:19.723Z,1018.81
2023-04-10T03:00:19.686Z,1018.81
2023-04-10T03:01:19.818Z,1018.83
2023-04-10T03:02:19.701Z,1018.77
2023-04-10T03:03:19.723Z,1018.79
2023-04-10T03:04:19.947Z,1018.78
2023-04-10T03:05:19.607Z,1018.76
2023-04-10T03:06:19.624Z,1018.74
2023-04-10T03:07:19.592Z,1018.74
2023-04-10T03:08:19.581Z,1018.74
2023-04-10T03:09:19.633Z,1018.73
2023-04-10T03:10:19.573Z,1018.68
2023-04-10T03:11:19.544Z,1018.73
2023-04-10T03:12:19.531Z,1018.74
2023-04-10T03:13:19.545Z,1018.72
2023-04-10T03:14:19.557Z,1018.69
2023-04-10T03:15:19.492Z,1018.71
2023-04-10T03:16:19.592Z,1018.75
2023-04-10T03:17:19.469Z,1018.75
2023-04-10T03:18:19.496Z,1018.75
2023-04-10T03:19:19.492Z,1018.75
2023-04-10T03:20:19.443Z,1018.77
2023-04-10T03:21:19.439Z,1018.77
2023-04-10T03:22:19.432Z,1018.75
2023-04-10T03:23:19.494Z,1018.78
2023-04-10T03:24:19.449Z,1018.75
2023-04-10T03:25:19.393Z,1018.80
2023-04-10T03:26:19.378Z,1018.77
2023-04-10T03:27:19.362Z,1018.70
2023-04-10T03:28:19.349Z,1018.73
2023-04-10T03:29:19.383Z,1018.74
2023-04-10T03:30:19.382Z,1018.70
2023-04-10T03:31:19.342Z,1018.73
2023-04-10T03:32:19.316Z,1018.73
2023-04-10T03:33:19.289Z,1018.69
2023-04-10T03:34:19.317Z,1018.68
2023-04-10T03:35:19.263Z,1018.71
2023-04-10T03:36:19.326Z,1018.72
2023-04-10T03:37:19.246Z,1018.72
2023-04-10T03:38:19.253Z,1018.75
2023-04-10T03:39:19.295Z,1018.72
2023-04-10T03:40:19.222Z,1018.75
2023-04-10T03:41:19.197Z,1018.71
2023-04-10T03:42:19.203Z,1018.81
2023-04-10T03:43:19.180Z,1018.76
2023-04-10T03:44:19.211Z,1018.80
2023-04-10T03:45:19.163Z,1018.81
2023-04-10T03:46:19.194Z,1018.83
2023-04-10T03:47:19.141Z,1018.81
2023-04-10T03:48:19.125Z,1018.81
2023-04-10T03:49:19.144Z,1018.81
2023-04-10T03:50:19.100Z,1018.86
2023-04-10T03:51:19.084Z,1018.85
2023-04-10T03:52:19.108Z,1018.82
2023-04-10T03:53:19.082Z,1018.85
2023-04-10T03:54:19.114Z,1018.87
2023-04-10T03:55:19.170Z,1018.83
2023-04-10T03:56:19.056Z,1018.82
2023-04-10T03:57:19.019Z,1018.84
2023-04-10T03:58:19.005Z,1018.85
2023-04-10T03:59:19.040Z,1018.83
2023-04-10T04:00:19.018Z,1018.79
2023-04-10T04:01:18.967Z,1018.83
2023-04-10T04:02:19.128Z,1018.86
2023-04-10T04:03:19.150Z,1018.84
2023-04-10T04:04:19.052Z,1018.85
2023-04-10T04:05:18.950Z,1018.85
2023-04-10T04:06:18.922Z,1018.83
2023-04-10T04:07:18.914Z,1018.85
2023-04-10T04:08:18.897Z,1018.88
2023-04-10T04:09:18.918Z,1018.87
2023-04-10T04:10:18.872Z,1018.87
2023-04-10T04:11:18.859Z,1018.90
2023-04-10T04:12:18.849Z,1018.94
2023-04-10T04:13:18.850Z,1018.93
2023-04-10T04:14:18.866Z,1018.93
2023-04-10T04:15:18.809Z,1018.97
2023-04-10T04:16:18.837Z,1018.95
2023-04-10T04:17:18.779Z,1018.99
2023-04-10T04:18:18.781Z,1018.99
2023-04-10T04:19:18.805Z,1018.99
2023-04-10T04:20:18.749Z,1018.98
2023-04-10T04:21:18.746Z,1018.97
2023-04-10T04:22:18.738Z,1018.99
2023-04-10T04:23:18.705Z,1018.98
2023-04-10T04:24:18.764Z,1019.03
2023-04-10T04:25:18.708Z,1019.00
2023-04-10T04:26:18.694Z,1019.01
2023-04-10T04:27:18.665Z,1019.05
2023-04-10T04:28:18.664Z,1019.03
2023-04-10T04:29:18.688Z,1019.03
2023-04-10T04:30:18.780Z,1018.99
2023-04-10T04:31:18.775Z,1018.99
2023-04-10T04:32:18.918Z,1019.03
2023-04-10T04:33:18.682Z,1018.95
2023-04-10T04:34:18.742Z,1018.96
2023-04-10T04:35:18.682Z,1018.95
2023-04-10T04:36:18.618Z,1018.97
2023-04-10T04:37:18.583Z,1018.98
2023-04-10T04:38:18.548Z,1018.99
2023-04-10T04:39:18.603Z,1018.97
2023-04-10T04:40:18.534Z,1019.01
2023-04-10T04:41:20.482Z,1018.97
2023-04-10T04:42:18.523Z,1018.99
2023-04-10T04:43:18.492Z,1019.04
2023-04-10T04:44:18.559Z,1019.02
2023-04-10T04:45:18.465Z,1019.05
2023-04-10T04:46:18.487Z,1019.07
2023-04-10T04:47:18.455Z,1019.07
2023-04-10T04:48:18.466Z,1019.10
2023-04-10T04:49:18.463Z,1019.11
2023-04-10T04:50:18.404Z,1019.20
2023-04-10T04:51:18.468Z,1019.23
2023-04-10T04:52:18.398Z,1019.22
2023-04-10T04:53:18.367Z,1019.24
2023-04-10T04:54:18.426Z,1019.23
2023-04-10T04:55:18.462Z,1019.21
2023-04-10T04:56:18.382Z,1019.24
2023-04-10T04:57:18.334Z,1019.22
2023-04-10T04:58:18.325Z,1019.23
2023-04-10T04:59:18.361Z,1019.18
2023-04-10T05:00:18.290Z,1019.21
2023-04-10T05:01:18.330Z,1019.23
2023-04-10T05:02:18.294Z,1019.22
2023-04-10T05:03:18.446Z,1019.19
2023-04-10T05:04:18.475Z,1019.20
2023-04-10T05:05:18.233Z,1019.21
2023-04-10T05:06:18.222Z,1019.19
2023-04-10T05:07:18.235Z,1019.11
2023-04-10T05:08:18.206Z,1019.14
2023-04-10T05:09:18.275Z,1019.13
2023-04-10T05:10:18.244Z,1019.11
2023-04-10T05:11:18.167Z,1019.15
2023-04-10T05:12:18.150Z,1019.19
2023-04-10T05:13:18.140Z,1019.18
2023-04-10T05:14:18.199Z,1019.19
2023-04-10T05:15:18.156Z,1019.18
2023-04-10T05:16:18.140Z,1019.12
2023-04-10T05:17:18.114Z,1019.16
2023-04-10T05:18:18.241Z,1019.21
2023-04-10T05:19:18.139Z,1019.19
2023-04-10T05:20:18.066Z,1019.12
2023-04-10T05:21:18.056Z,1019.13
2023-04-10T05:22:18.707Z,1019.16
2023-04-10T05:23:18.025Z,1019.19
2023-04-10T05:24:18.076Z,1019.14
2023-04-10T05:25:18.009Z,1019.17
2023-04-10T05:26:18.024Z,1019.18
2023-04-10T05:27:17.994Z,1019.21
2023-04-10T05:28:17.991Z,1019.20
2023-04-10T05:29:18.009Z,1019.20
2023-04-10T05:30:17.977Z,1019.19
2023-04-10T05:31:17.946Z,1019.21
2023-04-10T05:32:17.933Z,1019.18
2023-04-10T05:33:17.912Z,1019.14
2023-04-10T05:34:17.946Z,1019.19
2023-04-10T05:35:17.882Z,1019.15
2023-04-10T05:36:17.958Z,1019.19
2023-04-10T05:37:17.902Z,1019.18
2023-04-10T05:38:17.873Z,1019.17
2023-04-10T05:39:17.900Z,1019.15
2023-04-10T05:40:17.861Z,1019.20
2023-04-10T05:41:17.825Z,1019.17
2023-04-10T05:42:17.874Z,1019.21
2023-04-10T05:43:17.802Z,1019.27
2023-04-10T05:44:17.797Z,1019.21
2023-04-10T05:45:17.825Z,1019.22
2023-04-10T05:46:17.882Z,1019.20
2023-04-10T05:47:17.803Z,1019.22
2023-04-10T05:48:17.867Z,1019.26
2023-04-10T05:49:17.730Z,1019.23
2023-04-10T05:50:17.770Z,1019.27
2023-04-10T05:51:17.737Z,1019.21
2023-04-10T05:52:17.763Z,1019.15
2023-04-10T05:53:17.689Z,1019.22
2023-04-10T05:54:17.695Z,1019.18
2023-04-10T05:55:17.708Z,1019.15
2023-04-10T05:56:17.665Z,1019.17
2023-04-10T05:57:17.664Z,1019.16
2023-04-10T05:58:17.634Z,1019.18
2023-04-10T05:59:17.607Z,1019.19
2023-04-10T06:00:17.634Z,1019.22
2023-04-10T06:01:17.602Z,1019.21
2023-04-10T06:02:17.748Z,1019.20
2023-04-10T06:03:17.658Z,1019.25
2023-04-10T06:04:17.747Z,1019.23
2023-04-10T06:05:17.760Z,1019.19
2023-04-10T06:06:17.547Z,1019.20
2023-04-10T06:07:17.604Z,1019.17
2023-04-10T06:08:17.517Z,1019.20
2023-04-10T06:09:17.523Z,1019.20
2023-04-10T06:10:17.601Z,1019.17
2023-04-10T06:11:17.483Z,1019.19
2023-04-10T06:12:17.486Z,1019.21
2023-04-10T06:13:17.467Z,1019.21
2023-04-10T06:14:17.445Z,1019.27
2023-04-10T06:15:17.530Z,1019.27
2023-04-10T06:16:17.450Z,1019.24
2023-04-10T06:17:17.411Z,1019.28
2023-04-10T06:18:17.411Z,1019.23
2023-04-10T06:19:17.380Z,1019.22
2023-04-10T06:20:17.419Z,1019.22
2023-04-10T06:21:17.349Z,1019.16
2023-04-10T06:22:17.359Z,1019.17
2023-04-10T06:23:17.352Z,1019.18
2023-04-10T06:24:17.326Z,1019.16
2023-04-10T06:25:17.367Z,1019.12
2023-04-10T06:26:17.302Z,1019.12
2023-04-10T06:27:17.288Z,1019.13
2023-04-10T06:28:17.271Z,1019.11
2023-04-10T06:29:17.260Z,1019.16
2023-04-10T06:30:17.333Z,1019.10
2023-04-10T06:31:17.281Z,1019.14
2023-04-10T06:32:18.028Z,1019.11
2023-04-10T06:33:17.323Z,1019.12
2023-04-10T06:34:17.210Z,1019.12
2023-04-10T06:35:17.290Z,1019.09
2023-04-10T06:36:17.213Z,1019.09
2023-04-10T06:37:17.174Z,1019.08
2023-04-10T06:38:17.182Z,1019.05
2023-04-10T06:39:17.150Z,1019.07
2023-04-10T06:40:17.224Z,1019.04
2023-04-10T06:41:17.168Z,1019.03
2023-04-10T06:42:17.112Z,1019.07
2023-04-10T06:43:17.138Z,1019.08
2023-04-10T06:44:17.109Z,1019.14
2023-04-10T06:45:17.122Z,1019.10
2023-04-10T06:46:17.104Z,1019.12
2023-04-10T06:47:17.086Z,1019.09
2023-04-10T06:48:17.046Z,1019.13
2023-04-10T06:49:17.058Z,1019.13
2023-04-10T06:50:17.088Z,1019.10
2023-04-10T06:51:17.020Z,1019.13
2023-04-10T06:52:17.004Z,1019.06
2023-04-10T06:53:16.989Z,1019.11
2023-04-10T06:54:16.989Z,1019.10
2023-04-10T06:55:17.134Z,1019.10
2023-04-10T06:56:16.995Z,1019.12
2023-04-10T06:57:16.944Z,1019.10
2023-04-10T06:58:16.929Z,1019.09
2023-04-10T06:59:16.921Z,1019.10
2023-04-10T07:00:16.966Z,1019.09
2023-04-10T07:01:16.985Z,1019.07
2023-04-10T07:02:16.907Z,1019.08
2023-04-10T07:03:16.913Z,1019.15
2023-04-10T07:04:16.906Z,1019.15
2023-04-10T07:05:17.092Z,1019.13
2023-04-10T07:06:16.942Z,1019.14
2023-04-10T07:07:16.978Z,1019.19
2023-04-10T07:08:16.833Z,1019.12
2023-04-10T07:09:16.835Z,1019.14
2023-04-10T07:10:16.854Z,1019.17
2023-04-10T07:11:16.820Z,1019.15
2023-04-10T07:12:16.761Z,1019.13
2023-04-10T07:13:16.784Z,1019.13
2023-04-10T07:14:16.782Z,1019.08
2023-04-10T07:15:16.824Z,1019.12
2023-04-10T07:16:16.826Z,1019.12
2023-04-10T07:17:16.716Z,1019.12
2023-04-10T07:18:16.703Z,1019.15
2023-04-10T07:19:16.696Z,1019.17
2023-04-10T07:20:16.721Z,1019.22
2023-04-10T07:21:16.677Z,1019.18
2023-04-10T07:22:16.661Z,1019.20
2023-04-10T07:23:16.657Z,1019.21
2023-04-10T07:24:16.660Z,1019.21
2023-04-10T07:25:16.670Z,1019.18
2023-04-10T07:26:16.599Z,1019.17
2023-04-10T07:27:16.599Z,1019.18
2023-04-10T07:28:16.595Z,1019.15
2023-04-10T07:29:16.578Z,1019.16
2023-04-10T07:30:16.637Z,1019.13
2023-04-10T07:31:16.564Z,1019.15
2023-04-10T07:32:16.729Z,1019.13
2023-04-10T07:33:16.677Z,1019.09
2023-04-10T07:34:16.518Z,1019.09
2023-04-10T07:35:16.570Z,1019.05
2023-04-10T07:36:16.586Z,1019.09
2023-04-10T07:37:16.499Z,1019.09
2023-04-10T07:38:16.467Z,1019.06
2023-04-10T07:39:16.486Z,1019.10
2023-04-10T07:40:16.492Z,1019.09
2023-04-10T07:41:16.466Z,1019.08
2023-04-10T07:42:16.441Z,1019.07
2023-04-10T07:43:16.432Z,1019.07
2023-04-10T07:44:16.407Z,1019.06
2023-04-10T07:45:16.459Z,1019.05
2023-04-10T07:46:16.482Z,1019.05
2023-04-10T07:47:16.405Z,1019.04
2023-04-10T07:48:16.362Z,1019.03
2023-04-10T07:49:16.376Z,1019.07
2023-04-10T07:50:16.443Z,1019.08
2023-04-10T07:51:16.345Z,1019.04
2023-04-10T07:52:16.306Z,1019.05
2023-04-10T07:53:16.305Z,1019.07
2023-04-10T07:54:16.292Z,1019.07
2023-04-10T07:55:16.315Z,1019.06
2023-04-10T07:56:16.258Z,1019.06
2023-04-10T07:57:16.280Z,1019.02
2023-04-10T07:58:16.238Z,1019.01
2023-04-10T07:59:16.250Z,1019.01
2023-04-10T08:00:16.279Z,1018.98
2023-04-10T08:01:16.227Z,1018.94
2023-04-10T08:02:16.303Z,1018.98
2023-04-10T08:03:16.437Z,1018.97
2023-04-10T08:04:16.305Z,1018.96
2023-04-10T08:05:16.272Z,1018.94
2023-04-10T08:06:16.149Z,1018.93
2023-04-10T08:07:16.137Z,1018.95
2023-04-10T08:08:16.143Z,1018.97
2023-04-10T08:09:16.113Z,1018.89
2023-04-10T08:10:16.137Z,1018.92
2023-04-10T08:11:16.088Z,1018.93
2023-04-10T08:12:16.075Z,1018.91
2023-04-10T08:13:16.092Z,1018.92
2023-04-10T08:14:18.591Z,1018.87
2023-04-10T08:15:16.102Z,1018.86
2023-04-10T08:16:16.058Z,1018.88
2023-04-10T08:17:16.028Z,1018.87
2023-04-10T08:18:16.016Z,1018.84
2023-04-10T08:19:16.018Z,1018.78
2023-04-10T08:20:16.043Z,1018.77
2023-04-10T08:21:15.979Z,1018.76
2023-04-10T08:22:15.953Z,1018.78
2023-04-10T08:23:20.423Z,1018.76
2023-04-10T08:24:16.949Z,1018.75
2023-04-10T08:25:15.970Z,1018.72
2023-04-10T08:26:15.925Z,1018.72
2023-04-10T08:27:15.921Z,1018.70
2023-04-10T08:28:15.887Z,1018.66
2023-04-10T08:29:15.893Z,1018.68
2023-04-10T08:30:15.919Z,1018.67
2023-04-10T08:31:15.889Z,1018.68
2023-04-10T08:32:15.853Z,1018.70
2023-04-10T08:33:15.950Z,1018.73
2023-04-10T08:34:15.831Z,1018.67
2023-04-10T08:35:15.827Z,1018.72
2023-04-10T08:36:17.677Z,1018.75
2023-04-10T08:37:15.795Z,1018.73
2023-04-10T08:38:15.787Z,1018.80
2023-04-10T08:39:15.781Z,1018.77
2023-04-10T08:40:15.746Z,1018.71
2023-04-10T08:41:15.785Z,1018.74
2023-04-10T08:42:15.748Z,1018.71
2023-04-10T08:43:15.724Z,1018.67
2023-04-10T08:44:15.723Z,1018.71
2023-04-10T08:45:15.696Z,1018.68
2023-04-10T08:46:15.741Z,1018.66
2023-04-10T08:47:15.696Z,1018.64
2023-04-10T08:48:15.673Z,1018.58
2023-04-10T08:49:15.670Z,1018.55
2023-04-10T08:50:15.634Z,1018.65
2023-04-10T08:51:20.096Z,1018.59
2023-04-10T08:52:15.617Z,1018.58
2023-04-10T08:53:15.610Z,1018.59
2023-04-10T08:54:15.592Z,1018.62
2023-04-10T08:55:15.584Z,1018.56
2023-04-10T08:56:15.613Z,1018.55
2023-04-10T08:57:15.554Z,1018.60
2023-04-10T08:58:15.553Z,1018.57
2023-04-10T08:59:15.560Z,1018.60
2023-04-10T09:00:23.064Z,1018.57
2023-04-10T09:01:16.676Z,1018.55
2023-04-10T09:02:15.599Z,1018.55
2023-04-10T09:03:15.588Z,1018.58
2023-04-10T09:04:15.577Z,1018.58
2023-04-10T09:05:15.466Z,1018.55
2023-04-10T09:06:15.486Z,1018.56
2023-04-10T09:07:15.434Z,1018.57
2023-04-10T09:08:15.425Z,1018.54
2023-04-10T09:09:15.428Z,1018.51
2023-04-10T09:10:15.433Z,1018.56
2023-04-10T09:11:15.464Z,1018.52
2023-04-10T09:12:15.401Z,1018.54
2023-04-10T09:13:15.373Z,1018.45
2023-04-10T09:14:15.363Z,1018.42
2023-04-10T09:15:15.382Z,1018.44
2023-04-10T09:16:15.570Z,1018.40
2023-04-10T09:17:15.458Z,1018.39
2023-04-10T09:18:15.327Z,1018.35
2023-04-10T09:19:15.311Z,1018.37
2023-04-10T09:20:15.296Z,1018.34
2023-04-10T09:21:15.334Z,1018.34
2023-04-10T09:22:15.265Z,1018.36
2023-04-10T09:23:15.252Z,1018.28
2023-04-10T09:24:15.228Z,1018.35
2023-04-10T09:25:15.231Z,1018.31
2023-04-10T09:26:15.406Z,1018.32
2023-04-10T09:27:15.254Z,1018.32
2023-04-10T09:28:15.204Z,1018.30
2023-04-10T09:29:15.314Z,1018.33
2023-04-10T09:30:15.184Z,1018.31
2023-04-10T09:31:15.298Z,1018.26
2023-04-10T09:32:15.168Z,1018.31
2023-04-10T09:33:15.179Z,1018.33
2023-04-10T09:34:15.148Z,1018.32
2023-04-10T09:35:15.199Z,1018.30
2023-04-10T09:36:15.197Z,1018.33
2023-04-10T09:37:15.115Z,1018.33
2023-04-10T09:38:15.091Z,1018.26
2023-04-10T09:39:15.092Z,1018.25
2023-04-10T09:40:15.106Z,1018.28
2023-04-10T09:41:15.102Z,1018.26
2023-04-10T09:42:15.087Z,1018.17
2023-04-10T09:43:15.042Z,1018.18
2023-04-10T09:44:15.063Z,1018.18
2023-04-10T09:45:15.043Z,1018.19
2023-04-10T09:46:15.197Z,1018.17
2023-04-10T09:47:15.036Z,1018.10
2023-04-10T09:48:15.036Z,1018.14
2023-04-10T09:49:14.987Z,1018.11
2023-04-10T09:50:15.014Z,1018.09
2023-04-10T09:51:15.041Z,1018.09
2023-04-10T09:52:15.131Z,1018.02
2023-04-10T09:53:14.937Z,1018.07
2023-04-10T09:54:14.925Z,1018.08
2023-04-10T09:55:14.907Z,1018.05
2023-04-10T09:56:14.966Z,1017.99
2023-04-10T09:57:14.913Z,1017.97
2023-04-10T09:58:14.899Z,1018.00
2023-04-10T09:59:14.880Z,1018.00
2023-04-10T10:00:14.869Z,1017.97
2023-04-10T10:01:14.944Z,1017.97
2023-04-10T10:02:14.972Z,1017.99
2023-04-10T10:03:15.001Z,1017.98
2023-04-10T10:04:14.834Z,1017.99
2023-04-10T10:05:14.848Z,1017.91
2023-04-10T10:06:14.842Z,1017.92
2023-04-10T10:07:14.786Z,1017.86
2023-04-10T10:08:14.765Z,1017.83
2023-04-10T10:09:14.816Z,1017.81
2023-04-10T10:10:14.736Z,1017.81
2023-04-10T10:11:14.786Z,1017.87
2023-04-10T10:12:14.707Z,1017.87
2023-04-10T10:13:14.792Z,1017.83
2023-04-10T10:14:14.697Z,1017.83
2023-04-10T10:15:14.690Z,1017.81
2023-04-10T10:16:14.775Z,1017.79
2023-04-10T10:17:14.666Z,1017.75
2023-04-10T10:18:14.645Z,1017.71
2023-04-10T10:19:14.809Z,1017.73
2023-04-10T10:20:14.638Z,1017.79
2023-04-10T10:21:14.716Z,1017.68
2023-04-10T10:22:14.610Z,1017.71
2023-04-10T10:23:14.669Z,1017.72
2023-04-10T10:24:14.612Z,1017.71
2023-04-10T10:25:14.606Z,1017.69
2023-04-10T10:26:14.620Z,1017.69
2023-04-10T10:27:14.540Z,1017.55
2023-04-10T10:28:14.551Z,1017.65
2023-04-10T10:29:14.523Z,1017.63
2023-04-10T10:30:28.296Z,1017.66
2023-04-10T10:31:15.662Z,1017.66
2023-04-10T10:32:14.493Z,1017.68
2023-04-10T10:33:14.514Z,1017.67
2023-04-10T10:34:14.464Z,1017.61
2023-04-10T10:35:14.465Z,1017.61
2023-04-10T10:36:14.528Z,1017.57
2023-04-10T10:37:14.458Z,1017.55
2023-04-10T10:38:14.437Z,1017.56
2023-04-10T10:39:14.417Z,1017.56
2023-04-10T10:40:14.428Z,1017.47
2023-04-10T10:41:14.383Z,1017.45
2023-04-10T10:42:14.447Z,1017.49
2023-04-10T10:43:14.367Z,1017.45
2023-04-10T10:44:14.358Z,1017.45
2023-04-10T10:45:14.334Z,1017.42
2023-04-10T10:46:14.476Z,1017.44
2023-04-10T10:47:14.366Z,1017.37
2023-04-10T10:48:14.331Z,1017.36
2023-04-10T10:49:14.318Z,1017.34
2023-04-10T10:50:14.364Z,1017.36
2023-04-10T10:51:14.297Z,1017.36
2023-04-10T10:52:14.308Z,1017.35
2023-04-10T10:53:14.269Z,1017.25
2023-04-10T10:54:14.313Z,1017.29
2023-04-10T10:55:14.224Z,1017.29
2023-04-10T10:56:14.236Z,1017.29
2023-04-10T10:57:14.263Z,1017.20
2023-04-10T10:58:14.208Z,1017.19
2023-04-10T10:59:14.193Z,1017.17
2023-04-10T11:00:14.203Z,1017.17
2023-04-10T11:01:14.259Z,1017.15
2023-04-10T11:02:14.385Z,1017.14
2023-04-10T11:03:14.328Z,1017.03
2023-04-10T11:04:14.209Z,1017.07
2023-04-10T11:05:14.154Z,1017.07
2023-04-10T11:06:14.119Z,1017.04
2023-04-10T11:07:14.301Z,1017.06
2023-04-10T11:08:14.119Z,1017.05
2023-04-10T11:09:14.099Z,1017.02
2023-04-10T11:10:14.115Z,1017.03
2023-04-10T11:11:14.097Z,1017.01
2023-04-10T11:12:14.090Z,1016.98
2023-04-10T11:13:14.045Z,1017.01
2023-04-10T11:14:14.041Z,1016.92
2023-04-10T11:15:14.124Z,1016.94
2023-04-10T11:16:14.188Z,1016.93
2023-04-10T11:17:14.037Z,1016.92
2023-04-10T11:18:14.021Z,1016.89
2023-04-10T11:19:16.281Z,1016.89
2023-04-10T11:20:13.974Z,1016.88
2023-04-10T11:21:13.952Z,1016.83
2023-04-10T11:22:13.961Z,1016.85
2023-04-10T11:23:13.925Z,1016.83
2023-04-10T11:24:13.914Z,1016.80
2023-04-10T11:25:13.905Z,1016.81
2023-04-10T11:26:13.883Z,1016.86
2023-04-10T11:27:13.912Z,1016.85
2023-04-10T11:28:13.869Z,1016.88
2023-04-10T11:29:13.884Z,1016.77
2023-04-10T11:30:13.911Z,1016.78
2023-04-10T11:31:13.856Z,1016.79
2023-04-10T11:32:14.036Z,1016.80
2023-04-10T11:33:13.806Z,1016.74
2023-04-10T11:34:13.821Z,1016.79
2023-04-10T11:35:13.778Z,1016.77
2023-04-10T11:36:13.762Z,1016.74
2023-04-10T11:37:13.838Z,1016.76
2023-04-10T11:38:13.750Z,1016.77
2023-04-10T11:39:13.719Z,1016.69
2023-04-10T11:40:13.712Z,1016.66
2023-04-10T11:41:13.714Z,1016.62
2023-04-10T11:42:13.756Z,1016.57
2023-04-10T11:43:13.681Z,1016.58
2023-04-10T11:44:13.682Z,1016.55
2023-04-10T11:45:13.687Z,1016.50
2023-04-10T11:46:13.690Z,1016.45
2023-04-10T11:47:13.692Z,1016.49
2023-04-10T11:48:13.651Z,1016.44
2023-04-10T11:49:13.618Z,1016.44
2023-04-10T11:50:13.760Z,1016.40
2023-04-10T11:51:13.604Z,1016.34
2023-04-10T11:52:13.637Z,1016.39
2023-04-10T11:53:13.577Z,1016.39
2023-04-10T11:54:13.633Z,1016.36
2023-04-10T11:55:13.549Z,1016.36
2023-04-10T11:56:13.542Z,1016.30
2023-04-10T11:57:13.558Z,1016.31
2023-04-10T11:58:13.505Z,1016.24
2023-04-10T11:59:13.540Z,1016.22
2023-04-10T12:00:13.603Z,1016.18
2023-04-10T12:01:13.497Z,1016.17
2023-04-10T12:02:13.573Z,1016.12
2023-04-10T12:03:13.609Z,1016.08
2023-04-10T12:04:13.550Z,1016.05
2023-04-10T12:05:13.565Z,1016.02